Time;durP1;ratioP1;P1;durP2;ratioP2;P2;SDS_P1;SDS_P2;PMS_P1;PMS_P2;Temp;Humidity;BMP_temperature;BMP_pressure;BME280_temperature;BME280_humidity;BME280_pressure;Samples;Min_cycle;Max_cycle;Signal;HPM_P1;HPM_P2
2023/12/27 00:00:44;;;;;;;19.10;8.05;;;7.10;99.90;;;;;;5056792;28;20335;-61
2023/12/27 00:03:10;;;;;;;23.98;8.20;;;7.10;99.90;;;;;;5056455;28;20033;-61
2023/12/27 00:05:35;;;;;;;17.83;7.80;;;7.20;99.90;;;;;;5056531;28;20029;-62
2023/12/27 00:08:01;;;;;;;21.50;8.73;;;7.20;99.90;;;;;;5056481;28;20033;-61
2023/12/27 00:10:27;;;;;;;19.15;8.50;;;7.20;99.90;;;;;;5056386;28;20021;-62
2023/12/27 00:12:53;;;;;;;15.70;7.82;;;7.10;99.90;;;;;;5056418;28;20033;-61
2023/12/27 00:15:19;;;;;;;21.65;8.25;;;7.20;99.90;;;;;;5072629;28;20025;-61
2023/12/27 00:17:44;;;;;;;20.15;7.90;;;7.20;99.90;;;;;;5056359;28;20049;-61
2023/12/27 00:20:11;;;;;;;17.25;7.95;;;7.20;99.90;;;;;;5056330;28;20072;-61
2023/12/27 00:22:37;;;;;;;18.50;7.93;;;7.10;99.90;;;;;;5055727;28;20299;-61
2023/12/27 00:25:03;;;;;;;20.13;7.63;;;7.10;99.90;;;;;;5056326;28;20033;-61
2023/12/27 00:27:29;;;;;;;19.95;8.05;;;7.20;99.90;;;;;;5056358;28;20037;-61
2023/12/27 00:29:55;;;;;;;19.55;8.00;;;7.00;99.90;;;;;;5038828;28;20064;-61
2023/12/27 00:32:21;;;;;;;18.08;7.60;;;7.10;99.90;;;;;;5072094;28;20029;-61
2023/12/27 00:34:48;;;;;;;19.00;7.70;;;7.10;99.90;;;;;;5055816;28;20036;-60
2023/12/27 00:37:16;;;;;;;20.10;7.13;;;7.00;99.90;;;;;;5056151;28;20024;-60
2023/12/27 00:39:44;;;;;;;15.00;7.70;;;7.00;99.90;;;;;;5039064;28;20029;-60
2023/12/27 00:42:10;;;;;;;16.58;6.57;;;6.90;99.90;;;;;;5072017;28;20290;-62
2023/12/27 00:44:36;;;;;;;17.92;7.43;;;6.90;99.90;;;;;;5056169;28;20043;-61
2023/12/27 00:47:01;;;;;;;16.05;6.40;;;6.80;99.90;;;;;;5056099;28;20037;-61
2023/12/27 00:49:27;;;;;;;19.23;7.72;;;6.80;99.90;;;;;;5072458;28;20036;-61
2023/12/27 00:51:54;;;;;;;17.58;6.95;;;6.80;99.90;;;;;;5059689;28;20048;-61
2023/12/27 00:54:20;;;;;;;19.27;7.50;;;6.80;99.90;;;;;;5059735;28;20037;-62
2023/12/27 00:56:48;;;;;;;16.90;7.13;;;6.80;99.90;;;;;;5059030;28;20021;-61
2023/12/27 00:59:15;;;;;;;19.00;7.40;;;6.80;99.90;;;;;;5075485;28;20056;-61
2023/12/27 01:01:43;;;;;;;19.02;7.30;;;6.80;99.90;;;;;;5042272;28;20029;-61
2023/12/27 01:04:09;;;;;;;20.35;7.10;;;6.90;99.90;;;;;;5059630;28;20082;-61
2023/12/27 01:06:35;;;;;;;16.55;7.18;;;6.80;99.90;;;;;;5059548;28;20123;-61
2023/12/27 01:09:01;;;;;;;18.92;7.25;;;6.80;99.90;;;;;;5075272;28;20032;-62
2023/12/27 01:11:27;;;;;;;18.70;7.53;;;6.90;99.90;;;;;;5059651;28;20049;-61
2023/12/27 01:13:53;;;;;;;13.32;6.95;;;6.90;99.90;;;;;;5042235;28;20044;-61
2023/12/27 01:16:19;;;;;;;18.00;7.40;;;6.90;99.90;;;;;;5059350;28;20021;-61
2023/12/27 01:18:44;;;;;;;17.42;6.55;;;7.00;99.90;;;;;;5058517;28;20152;-61
2023/12/27 01:21:12;;;;;;;22.38;7.32;;;7.00;99.90;;;;;;5058520;28;20037;-61
2023/12/27 01:23:38;;;;;;;16.10;6.80;;;7.10;99.90;;;;;;5059228;28;20048;-61
2023/12/27 01:26:04;;;;;;;16.27;6.78;;;7.00;99.90;;;;;;5058489;28;20404;-61
2023/12/27 01:28:31;;;;;;;14.80;6.45;;;7.00;99.90;;;;;;5074948;28;20065;-61
2023/12/27 01:30:56;;;;;;;16.88;6.55;;;7.00;99.90;;;;;;5058829;28;20084;-61
2023/12/27 01:33:23;;;;;;;19.33;6.75;;;7.20;99.90;;;;;;5058994;28;20056;-61
2023/12/27 01:35:49;;;;;;;15.82;6.28;;;7.10;99.90;;;;;;5074844;28;20339;-61
2023/12/27 01:38:14;;;;;;;17.30;6.55;;;7.20;99.90;;;;;;5059008;28;20033;-61
2023/12/27 01:40:50;;;;;;;15.55;6.35;;;7.20;99.90;;;;;;5041648;28;20033;-61
2023/12/27 01:43:16;;;;;;;13.65;6.07;;;7.30;99.90;;;;;;5058907;28;20025;-61
2023/12/27 01:45:45;;;;;;;15.32;6.05;;;7.40;99.90;;;;;;5058834;28;20381;-61
2023/12/27 01:48:11;;;;;;;18.33;5.85;;;7.40;99.90;;;;;;5058631;28;20108;-61
2023/12/27 01:50:38;;;;;;;16.20;6.43;;;7.40;99.90;;;;;;5057834;28;20472;-62
2023/12/27 01:53:03;;;;;;;14.07;5.18;;;7.60;99.90;;;;;;5058740;28;20061;-61
2023/12/27 01:55:30;;;;;;;19.50;6.15;;;7.60;99.90;;;;;;5058701;28;20056;-61
2023/12/27 01:57:56;;;;;;;18.98;5.90;;;7.60;99.90;;;;;;5058681;28;20056;-61
2023/12/27 02:00:22;;;;;;;13.13;5.57;;;7.60;99.90;;;;;;5057730;28;20086;-61
2023/12/27 02:02:49;;;;;;;11.82;5.50;;;7.60;99.90;;;;;;5057085;28;20120;-61
2023/12/27 02:05:15;;;;;;;16.45;5.90;;;7.60;99.90;;;;;;5058419;28;20116;-61
2023/12/27 02:07:42;;;;;;;14.40;5.60;;;7.60;99.90;;;;;;5058451;28;20124;-61
2023/12/27 02:10:08;;;;;;;15.88;5.53;;;7.60;99.90;;;;;;5058474;28;20040;-61
2023/12/27 02:12:34;;;;;;;14.68;5.40;;;7.60;99.90;;;;;;5058470;28;20037;-61
2023/12/27 02:15:00;;;;;;;12.77;5.57;;;7.60;99.90;;;;;;5058364;28;20028;-62
2023/12/27 02:17:27;;;;;;;14.57;5.10;;;7.60;99.90;;;;;;5058163;28;20033;-61
2023/12/27 02:19:53;;;;;;;16.05;5.20;;;7.70;99.90;;;;;;5057399;28;20025;-61
2023/12/27 02:22:20;;;;;;;18.95;5.43;;;7.60;99.90;;;;;;5057390;28;20037;-61
2023/12/27 02:24:53;;;;;;;15.18;5.55;;;7.60;99.90;;;;;;5058134;28;20029;-61
2023/12/27 02:27:20;;;;;;;13.93;5.00;;;7.80;99.90;;;;;;5058019;28;20032;-61
2023/12/27 02:29:46;;;;;;;13.13;5.35;;;7.70;99.90;;;;;;5057836;28;20056;-62
2023/12/27 02:32:12;;;;;;;17.00;6.00;;;7.70;99.90;;;;;;5057152;28;20029;-61
2023/12/27 02:34:37;;;;;;;14.55;4.93;;;7.70;99.90;;;;;;5057973;28;20029;-61
2023/12/27 02:37:03;;;;;;;14.65;5.18;;;7.80;99.90;;;;;;5073769;28;20029;-61
2023/12/27 02:39:29;;;;;;;16.52;5.40;;;7.80;99.90;;;;;;5057817;28;20024;-61
2023/12/27 02:41:55;;;;;;;15.90;5.45;;;7.90;99.90;;;;;;5057782;28;20037;-61
2023/12/27 02:44:21;;;;;;;12.65;5.43;;;7.90;99.90;;;;;;5057694;28;20483;-61
2023/12/27 02:46:46;;;;;;;14.55;5.35;;;7.90;99.90;;;;;;5056960;28;20355;-61
2023/12/27 02:49:12;;;;;;;14.75;5.60;;;8.00;99.90;;;;;;5073458;28;20431;-61
2023/12/27 02:51:38;;;;;;;14.15;6.07;;;8.00;99.90;;;;;;5057754;28;20041;-61
2023/12/27 02:54:04;;;;;;;13.52;5.50;;;8.10;99.90;;;;;;5057506;28;20086;-61
2023/12/27 02:56:30;;;;;;;13.30;5.40;;;8.10;99.90;;;;;;5057499;28;20095;-61
2023/12/27 02:58:55;;;;;;;19.27;5.88;;;8.10;99.90;;;;;;5057404;28;20078;-61
2023/12/27 03:01:21;;;;;;;17.00;5.10;;;7.90;99.90;;;;;;5073233;28;20032;-61
2023/12/27 03:03:47;;;;;;;15.05;5.10;;;7.90;99.90;;;;;;5056657;28;20075;-61
2023/12/27 03:06:13;;;;;;;14.98;5.13;;;7.90;99.90;;;;;;5057339;28;20037;-61
2023/12/27 03:08:39;;;;;;;13.15;4.90;;;7.90;99.90;;;;;;5057312;28;20033;-61
2023/12/27 03:11:06;;;;;;;15.55;5.15;;;7.90;99.90;;;;;;5057144;28;20033;-61
2023/12/27 03:13:34;;;;;;;18.63;5.53;;;8.00;99.90;;;;;;5071957;28;20048;-62
2023/12/27 03:16:07;;;;;;;13.38;5.10;;;7.90;99.90;;;;;;5057238;28;20029;-61
2023/12/27 03:18:33;;;;;;;17.52;5.03;;;7.90;99.90;;;;;;5057164;28;20320;-61
2023/12/27 03:20:59;;;;;;;13.10;5.10;;;8.10;99.90;;;;;;5056426;28;20037;-61
2023/12/27 03:23:25;;;;;;;13.55;5.32;;;8.10;99.90;;;;;;5057072;28;20116;-61
2023/12/27 03:25:51;;;;;;;14.98;5.30;;;8.20;99.90;;;;;;5057099;28;20104;-61
2023/12/27 03:28:17;;;;;;;16.92;5.40;;;8.00;99.90;;;;;;5056915;28;20037;-61
2023/12/27 03:30:42;;;;;;;10.95;4.68;;;8.00;99.90;;;;;;5056763;28;20091;-62
2023/12/27 03:33:08;;;;;;;15.68;4.93;;;8.10;99.90;;;;;;5056145;28;20103;-62
2023/12/27 03:35:34;;;;;;;15.00;4.75;;;8.20;99.90;;;;;;5056179;28;20373;-61
2023/12/27 03:38:00;;;;;;;16.17;5.25;;;8.20;99.90;;;;;;5056172;28;20355;-61
2023/12/27 03:40:26;;;;;;;13.13;5.20;;;8.20;99.90;;;;;;5056778;28;20095;-62
2023/12/27 03:42:51;;;;;;;17.40;5.25;;;8.10;99.90;;;;;;5056749;28;20029;-62
2023/12/27 03:45:18;;;;;;;15.68;6.05;;;8.20;99.90;;;;;;5072550;28;20039;-62
2023/12/27 03:47:45;;;;;;;16.33;6.18;;;8.20;99.90;;;;;;5072668;28;20129;-61
2023/12/27 03:50:11;;;;;;;14.90;5.55;;;8.10;99.90;;;;;;5056565;28;20024;-62
2023/12/27 03:52:37;;;;;;;13.00;5.57;;;7.90;99.90;;;;;;5056634;28;20052;-62
2023/12/27 03:55:04;;;;;;;13.70;5.72;;;8.00;99.90;;;;;;5056641;28;20029;-62
2023/12/27 03:57:30;;;;;;;17.85;6.50;;;8.00;99.90;;;;;;5072596;28;20397;-63
2023/12/27 03:59:56;;;;;;;18.52;6.85;;;8.00;99.90;;;;;;5056678;28;20029;-62
2023/12/27 04:02:22;;;;;;;15.32;6.57;;;7.90;99.90;;;;;;5056514;28;20140;-63
2023/12/27 04:04:48;;;;;;;17.23;7.13;;;7.90;99.90;;;;;;5056610;28;20064;-62
2023/12/27 04:07:13;;;;;;;12.77;6.78;;;8.00;99.90;;;;;;5072467;28;20033;-62
2023/12/27 04:09:40;;;;;;;17.17;6.20;;;8.00;99.90;;;;;;5072473;28;20052;-62
2023/12/27 04:12:07;;;;;;;14.25;6.22;;;7.90;99.90;;;;;;5056387;28;20044;-62
2023/12/27 04:14:33;;;;;;;15.02;7.10;;;7.90;99.90;;;;;;5056420;28;20331;-62
2023/12/27 04:16:59;;;;;;;19.38;6.78;;;7.90;99.90;;;;;;5056351;28;20040;-62
2023/12/27 04:19:24;;;;;;;13.63;7.13;;;7.90;99.90;;;;;;5056290;28;20029;-62
2023/12/27 04:21:50;;;;;;;17.50;6.95;;;7.90;99.90;;;;;;5056342;28;20364;-62
2023/12/27 04:24:16;;;;;;;15.95;6.80;;;8.10;99.90;;;;;;5056455;28;20025;-62
2023/12/27 04:26:42;;;;;;;17.27;7.22;;;8.10;99.90;;;;;;5060281;28;20029;-62
2023/12/27 04:29:09;;;;;;;18.83;7.93;;;8.10;99.90;;;;;;5075839;28;20040;-61
2023/12/27 04:31:38;;;;;;;14.23;7.20;;;8.10;99.90;;;;;;5059361;28;20191;-61
2023/12/27 04:34:04;;;;;;;15.20;6.50;;;8.10;99.90;;;;;;5042806;28;20119;-61
2023/12/27 04:36:35;;;;;;;14.23;7.13;;;8.20;99.90;;;;;;5059309;28;20091;-61
2023/12/27 04:39:01;;;;;;;11.15;6.80;;;8.10;99.90;;;;;;5059987;28;20412;-61
2023/12/27 04:41:27;;;;;;;13.82;6.72;;;7.90;99.90;;;;;;5075816;28;20029;-61
2023/12/27 04:43:53;;;;;;;11.50;7.13;;;7.90;99.90;;;;;;5060038;28;20131;-61
2023/12/27 04:46:19;;;;;;;11.73;6.93;;;8.00;99.90;;;;;;5059931;28;20029;-61
2023/12/27 04:48:46;;;;;;;13.65;7.70;;;7.90;99.90;;;;;;5075598;28;20376;-61
2023/12/27 04:51:13;;;;;;;14.25;7.57;;;8.00;99.90;;;;;;5042649;28;20065;-61
2023/12/27 04:53:39;;;;;;;15.98;7.97;;;7.90;99.90;;;;;;5058952;28;20117;-61
2023/12/27 04:56:05;;;;;;;17.17;7.55;;;7.70;99.90;;;;;;5075444;28;20029;-61
2023/12/27 04:58:35;;;;;;;14.73;8.05;;;7.60;99.90;;;;;;5075591;28;20458;-61
2023/12/27 05:01:06;;;;;;;17.27;7.57;;;7.70;99.90;;;;;;5075475;28;20048;-61
2023/12/27 05:03:37;;;;;;;14.95;8.23;;;7.70;99.90;;;;;;5059666;28;20041;-62
2023/12/27 05:06:08;;;;;;;15.33;8.27;;;7.70;99.90;;;;;;5058781;28;20029;-62
2023/12/27 05:08:34;;;;;;;19.55;8.48;;;7.70;99.90;;;;;;5058888;28;20036;-63
2023/12/27 05:11:00;;;;;;;15.00;8.50;;;7.70;99.90;;;;;;5058643;28;20083;-63
2023/12/27 05:13:27;;;;;;;17.02;8.57;;;7.60;99.90;;;;;;5042074;28;20037;-62
2023/12/27 05:15:52;;;;;;;17.20;8.43;;;7.50;99.90;;;;;;5041903;28;20025;-62
2023/12/27 05:18:18;;;;;;;15.18;8.63;;;7.70;99.90;;;;;;5059298;28;20470;-62
2023/12/27 05:20:44;;;;;;;21.70;9.18;;;7.70;99.90;;;;;;5058492;28;20039;-62
2023/12/27 05:23:10;;;;;;;18.60;8.70;;;7.70;99.90;;;;;;5059199;28;20048;-62
2023/12/27 05:25:36;;;;;;;17.48;8.23;;;7.80;99.90;;;;;;5059145;28;20159;-62
2023/12/27 05:28:01;;;;;;;25.25;9.57;;;8.00;99.90;;;;;;5059022;28;20385;-62
2023/12/27 05:30:27;;;;;;;17.65;8.18;;;7.90;99.90;;;;;;5074722;28;20420;-62
2023/12/27 05:32:53;;;;;;;19.40;9.35;;;7.90;99.90;;;;;;5025052;28;20106;-62
2023/12/27 05:35:19;;;;;;;16.30;8.40;;;7.70;99.90;;;;;;5059141;28;20029;-62
2023/12/27 05:37:45;;;;;;;22.10;9.27;;;7.70;99.90;;;;;;5057876;28;20025;-62
2023/12/27 05:40:11;;;;;;;16.95;8.85;;;7.80;99.90;;;;;;5058937;28;20029;-63
2023/12/27 05:42:36;;;;;;;17.90;8.52;;;7.90;99.90;;;;;;5074801;28;20040;-62
2023/12/27 05:45:03;;;;;;;21.23;8.90;;;7.80;99.90;;;;;;5058762;28;20033;-62
2023/12/27 05:47:29;;;;;;;14.15;8.02;;;7.90;99.90;;;;;;5058718;28;20036;-63
2023/12/27 05:49:55;;;;;;;14.70;8.57;;;7.90;99.90;;;;;;5058631;28;20036;-62
2023/12/27 05:52:21;;;;;;;18.55;8.75;;;7.90;99.90;;;;;;5058564;28;20396;-62
2023/12/27 05:54:47;;;;;;;17.05;8.63;;;7.90;99.90;;;;;;5057863;28;20390;-62
2023/12/27 05:57:13;;;;;;;19.17;8.90;;;8.00;99.90;;;;;;5058559;28;20029;-62
2023/12/27 05:59:39;;;;;;;21.60;8.90;;;8.10;99.90;;;;;;5058701;28;20154;-62
2023/12/27 06:02:06;;;;;;;15.77;8.88;;;8.20;99.90;;;;;;5058247;28;20037;-62
2023/12/27 06:04:32;;;;;;;15.27;8.60;;;8.30;99.90;;;;;;5057786;28;20094;-62
2023/12/27 06:06:58;;;;;;;19.00;8.35;;;8.30;99.90;;;;;;5058228;28;20064;-62
2023/12/27 06:09:24;;;;;;;17.80;7.95;;;8.30;99.90;;;;;;5058368;28;20068;-61
2023/12/27 06:11:50;;;;;;;18.20;8.52;;;8.40;99.90;;;;;;5074185;28;20032;-61
2023/12/27 06:14:15;;;;;;;14.50;8.45;;;8.40;99.90;;;;;;5040832;28;20098;-61
2023/12/27 06:16:43;;;;;;;18.63;8.68;;;8.40;99.90;;;;;;5040879;28;20033;-61
2023/12/27 06:19:08;;;;;;;15.90;8.00;;;8.60;99.90;;;;;;5073975;28;20021;-61
2023/12/27 06:21:34;;;;;;;15.57;7.20;;;8.50;99.90;;;;;;5058122;28;20033;-62
2023/12/27 06:24:00;;;;;;;15.50;7.95;;;8.50;99.90;;;;;;5057308;28;20123;-62
2023/12/27 06:26:26;;;;;;;14.05;8.15;;;8.40;99.90;;;;;;5058024;28;20120;-61
2023/12/27 06:28:51;;;;;;;12.65;7.35;;;8.50;99.90;;;;;;5056935;28;20352;-61
2023/12/27 06:31:17;;;;;;;16.05;7.20;;;8.40;99.90;;;;;;5057020;28;20033;-61
2023/12/27 06:33:43;;;;;;;13.55;7.47;;;8.30;99.90;;;;;;5057819;28;20315;-61
2023/12/27 06:36:09;;;;;;;15.52;7.35;;;8.40;99.90;;;;;;5057799;28;20060;-61
2023/12/27 06:38:34;;;;;;;14.15;8.18;;;8.40;99.90;;;;;;5057832;28;20033;-61
2023/12/27 06:41:01;;;;;;;14.32;7.80;;;8.60;99.90;;;;;;5057634;28;20059;-61
2023/12/27 06:43:29;;;;;;;14.93;7.25;;;8.70;99.90;;;;;;5073776;28;20048;-62
2023/12/27 06:45:54;;;;;;;13.48;7.22;;;8.50;99.90;;;;;;5057631;28;20383;-62
2023/12/27 06:48:20;;;;;;;14.65;7.20;;;8.50;99.90;;;;;;5057454;28;20183;-62
2023/12/27 06:50:48;;;;;;;14.20;7.43;;;8.30;99.90;;;;;;5056656;28;20056;-62
2023/12/27 06:53:13;;;;;;;13.70;7.10;;;8.30;99.90;;;;;;5056728;28;20031;-62
2023/12/27 06:55:39;;;;;;;15.43;7.35;;;8.50;99.90;;;;;;5056782;28;20033;-61
2023/12/27 06:58:05;;;;;;;11.25;7.47;;;8.60;99.90;;;;;;5057382;28;20037;-61
2023/12/27 07:00:31;;;;;;;13.23;7.30;;;8.60;99.90;;;;;;5057525;28;20333;-62
2023/12/27 07:02:56;;;;;;;12.85;7.28;;;8.60;99.90;;;;;;5056574;28;20040;-61
2023/12/27 07:05:22;;;;;;;13.95;7.13;;;8.50;99.90;;;;;;5057217;28;20025;-61
2023/12/27 07:07:48;;;;;;;15.55;7.28;;;8.50;99.90;;;;;;5057178;28;20044;-62
2023/12/27 07:10:14;;;;;;;13.98;7.30;;;8.50;99.90;;;;;;5057180;28;20071;-62
2023/12/27 07:12:40;;;;;;;11.48;6.57;;;8.50;99.90;;;;;;5057009;28;20285;-62
2023/12/27 07:15:11;;;;;;;11.88;7.18;;;8.50;99.90;;;;;;5057080;28;20296;-61
2023/12/27 07:17:37;;;;;;;11.43;6.53;;;8.50;99.90;;;;;;5040400;28;20090;-62
2023/12/27 07:20:03;;;;;;;9.68;6.78;;;8.60;99.90;;;;;;5073276;28;20029;-61
2023/12/27 07:22:29;;;;;;;10.38;6.97;;;8.70;99.90;;;;;;5056999;28;20037;-61
2023/12/27 07:24:54;;;;;;;9.98;6.13;;;8.70;99.90;;;;;;5056221;28;20044;-62
2023/12/27 07:27:20;;;;;;;10.02;6.57;;;8.60;99.90;;;;;;5056170;28;20040;-62
2023/12/27 07:29:46;;;;;;;9.32;6.25;;;8.60;99.90;;;;;;5039402;28;20067;-61
2023/12/27 07:32:12;;;;;;;8.90;6.50;;;8.60;99.90;;;;;;5056807;28;20041;-63
2023/12/27 07:34:38;;;;;;;10.27;6.32;;;8.50;99.90;;;;;;5056045;28;20419;-63
2023/12/27 07:37:04;;;;;;;8.85;6.20;;;8.60;99.90;;;;;;5056628;28;20091;-62
2023/12/27 07:39:32;;;;;;;10.27;5.90;;;8.60;99.90;;;;;;5056707;28;20413;-62
2023/12/27 07:41:59;;;;;;;8.40;6.03;;;8.60;99.90;;;;;;5072673;28;20033;-62
2023/12/27 07:44:26;;;;;;;8.13;5.93;;;8.60;99.90;;;;;;5055951;28;20286;-62
2023/12/27 07:46:52;;;;;;;8.02;5.57;;;8.70;99.90;;;;;;5055842;28;20387;-62
2023/12/27 07:49:18;;;;;;;9.55;5.60;;;8.70;99.90;;;;;;5072583;28;20027;-62
2023/12/27 07:51:44;;;;;;;9.88;5.57;;;8.80;99.90;;;;;;5056617;28;20120;-62
2023/12/27 07:54:10;;;;;;;10.35;5.90;;;8.80;99.90;;;;;;5056591;28;20112;-62
2023/12/27 07:56:36;;;;;;;9.10;4.95;;;8.80;99.90;;;;;;5072260;28;20348;-61
2023/12/27 07:59:03;;;;;;;7.32;4.78;;;8.80;99.90;;;;;;5057254;28;20029;-62
2023/12/27 08:01:31;;;;;;;6.78;4.90;;;8.90;99.90;;;;;;5062969;28;20331;-62
2023/12/27 08:03:59;;;;;;;6.18;4.85;;;8.90;99.90;;;;;;5063081;28;20033;-62
2023/12/27 08:06:26;;;;;;;6.55;4.57;;;9.00;99.90;;;;;;5063095;28;20109;-62
2023/12/27 08:08:53;;;;;;;6.55;4.63;;;9.10;99.90;;;;;;5062228;28;20033;-61
2023/12/27 08:11:20;;;;;;;7.57;4.70;;;9.10;99.90;;;;;;5062899;28;20091;-61
2023/12/27 08:13:46;;;;;;;5.47;3.97;;;9.10;99.90;;;;;;5062279;28;20024;-61
2023/12/27 08:16:12;;;;;;;7.55;4.40;;;9.10;99.90;;;;;;5062458;28;20036;-62
2023/12/27 08:18:38;;;;;;;4.80;4.10;;;9.10;99.90;;;;;;5062283;28;20124;-62
2023/12/27 08:21:07;;;;;;;4.47;4.07;;;9.10;99.90;;;;;;5062899;28;20029;-62
2023/12/27 08:23:33;;;;;;;7.63;3.83;;;9.10;99.90;;;;;;5062245;28;20037;-62
2023/12/27 08:25:59;;;;;;;6.35;3.50;;;9.10;99.90;;;;;;5062924;28;20108;-62
2023/12/27 08:28:25;;;;;;;6.25;3.53;;;9.10;99.90;;;;;;5078887;28;20392;-63
2023/12/27 08:30:50;;;;;;;4.07;2.80;;;9.20;99.90;;;;;;5028718;28;20080;-63
2023/12/27 08:33:16;;;;;;;5.18;2.90;;;9.30;99.90;;;;;;5062843;28;20039;-62
2023/12/27 08:35:42;;;;;;;5.18;2.83;;;9.30;99.90;;;;;;5063082;28;20389;-63
2023/12/27 08:38:08;;;;;;;5.00;3.00;;;9.30;99.90;;;;;;5062956;28;20029;-63
2023/12/27 08:40:34;;;;;;;4.85;2.83;;;9.30;99.90;;;;;;5063229;28;20086;-63
2023/12/27 08:43:00;;;;;;;4.93;2.75;;;9.40;99.90;;;;;;5078862;28;20044;-63
2023/12/27 08:45:26;;;;;;;4.47;2.53;;;9.50;99.90;;;;;;5062957;28;20045;-63
2023/12/27 08:47:52;;;;;;;7.88;3.13;;;9.60;99.90;;;;;;5078836;28;20067;-63
2023/12/27 08:50:18;;;;;;;3.78;2.33;;;9.60;99.90;;;;;;5062910;28;20106;-63
2023/12/27 08:52:44;;;;;;;3.92;2.22;;;9.60;99.90;;;;;;5062108;28;20045;-63
2023/12/27 08:55:10;;;;;;;4.60;2.55;;;9.60;99.90;;;;;;5062803;28;20059;-63
2023/12/27 08:57:39;;;;;;;6.68;2.28;;;9.60;99.90;;;;;;5062731;28;20301;-63
2023/12/27 09:00:10;;;;;;;2.83;1.88;;;9.70;99.90;;;;;;5062807;28;20388;-62
2023/12/27 09:02:39;;;;;;;5.32;2.47;;;9.70;99.90;;;;;;5078748;28;20277;-63
2023/12/27 09:05:09;;;;;;;8.07;2.42;;;9.70;99.90;;;;;;5062727;28;20048;-63
2023/12/27 09:07:35;;;;;;;5.47;2.15;;;9.70;99.90;;;;;;5062750;28;20045;-64
2023/12/27 09:10:01;;;;;;;7.57;2.40;;;9.70;99.90;;;;;;5078680;28;20028;-63
2023/12/27 09:12:27;;;;;;;6.82;2.17;;;9.70;99.90;;;;;;5059687;28;20064;-63
2023/12/27 09:14:53;;;;;;;5.25;2.50;;;9.80;99.90;;;;;;5042185;28;20106;-62
2023/12/27 09:17:19;;;;;;;2.42;2.10;;;9.80;99.90;;;;;;5059392;28;20040;-63
2023/12/27 09:19:45;;;;;;;3.63;2.42;;;9.90;99.90;;;;;;5059378;28;20041;-63
2023/12/27 09:22:11;;;;;;;6.22;2.40;;;9.90;99.90;;;;;;5059384;28;20029;-63
2023/12/27 09:24:37;;;;;;;3.20;2.20;;;9.90;99.90;;;;;;5059429;28;20086;-63
2023/12/27 09:27:03;;;;;;;4.50;2.58;;;9.90;99.90;;;;;;5058540;28;20029;-62
2023/12/27 09:29:30;;;;;;;4.97;2.58;;;9.90;99.90;;;;;;5075097;28;20428;-63
2023/12/27 09:31:56;;;;;;;4.25;2.00;;;9.90;99.90;;;;;;5075144;28;20286;-61
2023/12/27 09:34:22;;;;;;;3.97;2.15;;;9.90;99.90;;;;;;5075025;28;20110;-64
2023/12/27 09:36:48;;;;;;;4.63;2.20;;;10.00;99.90;;;;;;5059233;28;20435;-64
2023/12/27 09:39:14;;;;;;;6.18;3.03;;;10.00;99.90;;;;;;5059042;28;20349;-63
2023/12/27 09:41:41;;;;;;;9.25;3.15;;;10.00;99.90;;;;;;5059008;28;20051;-63
2023/12/27 09:44:17;;;;;;;10.43;3.47;;;10.00;99.90;;;;;;5058918;28;20094;-63
2023/12/27 09:46:43;;;;;;;10.40;3.50;;;10.00;99.90;;;;;;5059095;28;20112;-62
2023/12/27 09:49:09;;;;;;;7.55;3.20;;;10.00;99.90;;;;;;5058183;28;20108;-64
2023/12/27 09:51:38;;;;;;;8.85;2.95;;;10.00;99.90;;;;;;5074586;28;20440;-64
2023/12/27 09:54:04;;;;;;;7.82;3.38;;;10.00;99.90;;;;;;5058549;28;20393;-60
2023/12/27 09:56:31;;;;;;;6.50;2.83;;;10.10;99.90;;;;;;5057844;28;20052;-64
2023/12/27 09:59:00;;;;;;;4.88;2.55;;;10.10;99.90;;;;;;5057807;28;20033;-65
2023/12/27 10:01:29;;;;;;;6.15;2.38;;;10.10;99.90;;;;;;5058606;28;20037;-64
2023/12/27 10:04:04;;;;;;;5.55;2.70;;;10.10;99.90;;;;;;5058533;28;20049;-65
2023/12/27 10:06:44;;;;;;;5.70;3.00;;;10.10;99.90;;;;;;5074436;28;20025;-62
2023/12/27 10:09:11;;;;;;;6.40;2.47;;;10.10;99.90;;;;;;5074445;28;20033;-66
2023/12/27 10:11:41;;;;;;;4.45;2.60;;;10.10;99.90;;;;;;5058434;28;20126;-65
2023/12/27 10:14:09;;;;;;;3.88;2.75;;;10.10;99.90;;;;;;5057600;28;20037;-66
2023/12/27 10:16:37;;;;;;;5.38;2.70;;;10.10;99.90;;;;;;5058239;28;20032;-65
2023/12/27 10:19:07;;;;;;;3.90;2.25;;;10.10;99.90;;;;;;5058314;28;20029;-65
2023/12/27 10:21:43;;;;;;;4.95;2.67;;;10.10;99.90;;;;;;5058231;28;20033;-66
2023/12/27 10:24:12;;;;;;;5.35;2.55;;;10.20;99.90;;;;;;5056726;28;20055;-65
2023/12/27 10:26:38;;;;;;;4.15;2.83;;;10.20;99.90;;;;;;5058208;28;20037;-70
2023/12/27 10:29:07;;;;;;;6.63;3.03;;;10.20;99.90;;;;;;5057182;28;20159;-68
2023/12/27 10:31:33;;;;;;;6.93;2.72;;;10.20;99.90;;;;;;5057415;28;20040;-68
2023/12/27 10:34:02;;;;;;;6.05;2.65;;;10.10;99.90;;;;;;5073923;28;20056;-70
2023/12/27 10:36:33;;;;;;;5.35;2.67;;;10.20;99.90;;;;;;5041220;28;20032;-66
2023/12/27 10:39:04;;;;;;;6.68;2.90;;;10.30;99.90;;;;;;5057902;28;20390;-68
2023/12/27 10:41:33;;;;;;;7.50;2.97;;;10.20;99.90;;;;;;5073846;28;20044;-68
2023/12/27 10:44:00;;;;;;;6.18;3.00;;;10.20;99.90;;;;;;5057774;28;20331;-69
2023/12/27 10:46:26;;;;;;;8.93;2.80;;;10.20;99.90;;;;;;5056809;28;20037;-66
2023/12/27 10:48:58;;;;;;;4.85;2.85;;;10.10;99.90;;;;;;5040361;28;20303;-69
2023/12/27 10:51:26;;;;;;;7.20;3.15;;;10.10;99.90;;;;;;5057607;28;20347;-67
2023/12/27 10:53:58;;;;;;;5.25;3.22;;;10.10;99.90;;;;;;5057651;28;20074;-69
2023/12/27 10:56:24;;;;;;;4.88;2.92;;;10.10;99.90;;;;;;5057238;28;20082;-63
2023/12/27 10:58:52;;;;;;;8.20;3.05;;;10.10;99.90;;;;;;5057432;28;20025;-65
2023/12/27 11:01:22;;;;;;;8.77;3.10;;;10.10;99.90;;;;;;5073473;28;20037;-67
2023/12/27 11:03:49;;;;;;;6.88;2.78;;;10.10;99.90;;;;;;5073484;28;20114;-67
2023/12/27 11:06:19;;;;;;;6.45;2.90;;;10.20;99.90;;;;;;5023941;28;20051;-65
2023/12/27 11:08:50;;;;;;;6.50;2.80;;;10.30;99.90;;;;;;5057372;28;20312;-66
2023/12/27 11:11:19;;;;;;;5.05;2.90;;;10.30;99.90;;;;;;5056569;28;20045;-67
2023/12/27 11:13:48;;;;;;;8.98;3.20;;;10.20;99.90;;;;;;5057061;28;20044;-67
2023/12/27 11:16:17;;;;;;;7.75;2.60;;;10.20;99.90;;;;;;5057191;28;20033;-64
2023/12/27 11:18:44;;;;;;;6.65;2.78;;;10.20;99.90;;;;;;5073201;28;20045;-65
2023/12/27 11:21:10;;;;;;;8.45;2.78;;;10.30;99.90;;;;;;5056453;28;20025;-65
2023/12/27 11:23:35;;;;;;;6.90;3.20;;;10.30;99.90;;;;;;5057182;28;20031;-63
2023/12/27 11:26:04;;;;;;;8.13;2.83;;;10.20;99.90;;;;;;5073130;28;20029;-64
2023/12/27 11:28:33;;;;;;;6.93;2.80;;;10.20;99.90;;;;;;5057055;28;20033;-68
2023/12/27 11:31:00;;;;;;;5.88;2.75;;;10.30;99.90;;;;;;5072677;28;20126;-66
2023/12/27 11:33:25;;;;;;;8.80;2.67;;;10.20;99.90;;;;;;5056085;28;20037;-63
2023/12/27 11:35:51;;;;;;;7.10;2.72;;;10.20;99.90;;;;;;5071895;28;20033;-63
2023/12/27 11:38:20;;;;;;;5.85;2.83;;;10.20;99.90;;;;;;5072709;28;20037;-67
2023/12/27 11:40:47;;;;;;;7.05;2.67;;;10.30;99.90;;;;;;5056841;28;20117;-63
2023/12/27 11:43:29;;;;;;;3.33;2.55;;;10.30;99.90;;;;;;5056772;28;20308;-65
2023/12/27 11:46:02;;;;;;;3.08;1.65;;;10.30;99.90;;;;;;5057141;28;20475;-67
2023/12/27 11:48:33;;;;;;;5.93;2.40;;;10.40;99.90;;;;;;5057043;28;20037;-65
2023/12/27 11:51:00;;;;;;;9.23;2.92;;;10.40;99.90;;;;;;5055901;28;20068;-66
2023/12/27 11:53:27;;;;;;;8.00;2.70;;;10.40;99.90;;;;;;5056694;28;20033;-69
2023/12/27 11:55:53;;;;;;;5.68;2.55;;;10.50;99.90;;;;;;5055873;28;20025;-67
2023/12/27 11:58:33;;;;;;;6.65;2.60;;;10.40;99.90;;;;;;5055837;28;20032;-66
2023/12/27 12:01:24;;;;;;;6.60;2.90;;;10.40;99.90;;;;;;5056680;28;20035;-66
2023/12/27 12:04:06;;;;;;;4.90;2.60;;;10.50;99.90;;;;;;5056682;28;20098;-65
2023/12/27 12:06:54;;;;;;;7.20;2.80;;;10.40;99.90;;;;;;5056847;28;20312;-63
2023/12/27 12:09:35;;;;;;;7.63;2.80;;;10.40;99.90;;;;;;5056603;28;20026;-64
2023/12/27 12:12:17;;;;;;;5.78;2.70;;;10.40;99.90;;;;;;5056506;28;20025;-62
2023/12/27 12:14:44;;;;;;;7.32;2.75;;;10.30;99.90;;;;;;5056594;28;20025;-66
2023/12/27 12:17:12;;;;;;;5.28;2.45;;;10.30;99.90;;;;;;5072365;28;20028;-65
2023/12/27 12:19:39;;;;;;;7.13;2.97;;;10.20;99.90;;;;;;5056486;28;20033;-63
2023/12/27 12:22:05;;;;;;;5.93;2.80;;;10.30;99.90;;;;;;5056369;28;20581;-63
2023/12/27 12:24:32;;;;;;;4.45;2.33;;;10.30;99.90;;;;;;5055687;28;20435;-65
2023/12/27 12:27:02;;;;;;;7.22;2.78;;;10.30;99.90;;;;;;5056432;28;20292;-68
2023/12/27 12:29:28;;;;;;;10.25;2.67;;;10.30;99.90;;;;;;5072450;28;20061;-68
2023/12/27 12:31:54;;;;;;;4.80;2.45;;;10.30;99.90;;;;;;5055518;28;20041;-69
2023/12/27 12:34:25;;;;;;;7.78;2.70;;;10.40;99.90;;;;;;5055630;28;20047;-64
2023/12/27 12:36:52;;;;;;;4.53;2.20;;;10.30;99.90;;;;;;5056781;28;20427;-67
2023/12/27 12:39:19;;;;;;;8.43;2.70;;;10.40;99.90;;;;;;5056272;28;20024;-67
2023/12/27 12:41:45;;;;;;;9.70;2.70;;;10.30;99.90;;;;;;5056352;28;20119;-66
2023/12/27 12:44:12;;;;;;;5.97;2.63;;;10.30;99.90;;;;;;5056188;28;20300;-68
2023/12/27 12:46:41;;;;;;;7.40;2.63;;;10.30;99.90;;;;;;5058541;28;20021;-64